4XAFF LLMG-LLMG

Flight info

Callsign 4XAFF
Flight time 0h 42m
Altitude 800
Route CIRCUIT TRAINING
Aircraft AT8T/L-V/N

Departure

Time 2026-04-15 13:15
Airport Megiddo Airport (LLMG)

Arrival

Time 2026-04-15 13:58
Airport Megiddo Airport (LLMG)
Time Latitude Longitude Altitude Speed Heading
2026-04-15 13:11 32.59452 35.23680 172 ft 1 kts 258°
2026-04-15 13:11 32.59458 35.23639 173 ft 13 kts 306°
2026-04-15 13:11 32.59493 35.23593 174 ft 6 kts 330°
2026-04-15 13:11 32.59620 35.23510 169 ft 25 kts 331°
2026-04-15 13:12 32.59700 35.23555 168 ft 16 kts 91°
2026-04-15 13:12 32.59698 35.23675 166 ft 12 kts 106°
2026-04-15 13:12 32.59686 35.23719 166 ft 0 kts 89°
2026-04-15 13:13 32.59686 35.23721 166 ft 3 kts 89°
2026-04-15 13:13 32.59687 35.23772 166 ft 4 kts 89°
2026-04-15 13:13 32.59688 35.23845 166 ft 16 kts 89°
2026-04-15 13:14 32.59686 35.23947 165 ft 7 kts 103°
2026-04-15 13:14 32.59696 35.23865 166 ft 40 kts 272°
2026-04-15 13:14 32.59711 35.23320 172 ft 91 kts 271°
2026-04-15 13:14 32.59724 35.22480 298 ft 109 kts 271°
2026-04-15 13:15 32.59738 35.21555 531 ft 113 kts 273°
2026-04-15 13:15 32.59770 35.20571 648 ft 125 kts 265°
2026-04-15 13:15 32.59241 35.19930 875 ft 114 kts 191°
2026-04-15 13:15 32.58411 35.19908 929 ft 126 kts 178°
2026-04-15 13:16 32.57903 35.20663 788 ft 131 kts 103°
2026-04-15 13:16 32.57791 35.21607 1152 ft 102 kts 92°
2026-04-15 13:16 32.57851 35.22488 1107 ft 110 kts 83°
2026-04-15 13:16 32.57933 35.23417 993 ft 115 kts 84°
2026-04-15 13:17 32.58012 35.24380 889 ft 119 kts 84°
2026-04-15 13:17 32.58215 35.25296 795 ft 112 kts 63°
2026-04-15 13:20 32.58409 35.25682 739 ft 110 kts 55°
2026-04-15 13:20 32.58936 35.26035 793 ft 80 kts
2026-04-15 13:21 32.59500 35.25737 635 ft 94 kts 332°
2026-04-15 13:21 32.59703 35.25013 478 ft 106 kts 262°
2026-04-15 13:21 32.59696 35.24133 177 ft 100 kts 271°
2026-04-15 13:21 32.59725 35.23408 172 ft 87 kts 272°
2026-04-15 13:22 32.59732 35.22708 220 ft 112 kts 268°
2026-04-15 13:22 32.59713 35.21949 419 ft 108 kts 270°
2026-04-15 13:22 32.59689 35.20984 581 ft 117 kts 274°
2026-04-15 13:22 32.59665 35.19988 761 ft 125 kts 252°
2026-04-15 13:23 32.59078 35.19405 919 ft 112 kts 159°
2026-04-15 13:23 32.58246 35.19563 915 ft 125 kts 165°
2026-04-15 13:23 32.57899 35.20279 989 ft 109 kts 81°
2026-04-15 13:23 32.57993 35.21039 1057 ft 108 kts 90°
2026-04-15 13:24 32.58036 35.21534 1197 ft 102 kts 86°
2026-04-15 13:24 32.58104 35.22386 1213 ft 110 kts 89°
2026-04-15 13:24 32.58071 35.23374 1025 ft 128 kts 93°
2026-04-15 13:24 32.57992 35.24304 1188 ft 86 kts 95°
2026-04-15 13:25 32.57910 35.24867 1456 ft 65 kts 68°
2026-04-15 13:25 32.58390 35.25307 1499 ft 83 kts 33°
2026-04-15 13:25 32.58842 35.25442 1442 ft 66 kts 17°
2026-04-15 13:25 32.59380 35.25322 965 ft 88 kts 330°
2026-04-15 13:26 32.59601 35.24942 753 ft 95 kts 280°
2026-04-15 13:26 32.59705 35.24164 295 ft 94 kts 270°
2026-04-15 13:26 32.59698 35.23495 171 ft 67 kts 276°
2026-04-15 13:26 32.59707 35.22738 254 ft 118 kts 267°
2026-04-15 13:27 32.59792 35.21756 780 ft 115 kts 282°
2026-04-15 13:27 32.59849 35.20832 976 ft 115 kts 313°
2026-04-15 13:27 32.59887 35.19675 1196 ft 128 kts 276°
2026-04-15 13:27 32.59526 35.18825 1597 ft 124 kts 196°
2026-04-15 13:28 32.58780 35.19059 1908 ft 119 kts 164°
2026-04-15 13:28 32.57916 35.18994 2210 ft 118 kts 155°
2026-04-15 13:28 32.57853 35.19823 2590 ft 115 kts 91°
2026-04-15 13:28 32.57842 35.20744 2948 ft 110 kts 100°
2026-04-15 13:29 32.57737 35.21688 3187 ft 122 kts 107°
2026-04-15 13:29 32.57606 35.22543 3575 ft 82 kts 101°
2026-04-15 13:29 32.57835 35.23213 3622 ft 101 kts 74°
2026-04-15 13:29 32.58298 35.23965 3898 ft 121 kts 56°
2026-04-15 13:30 32.58938 35.24659 4168 ft 133 kts 53°
2026-04-15 13:30 32.59602 35.25370 4698 ft 117 kts 52°
2026-04-15 13:30 32.60126 35.25760 4851 ft 80 kts 45°
2026-04-15 13:30 32.60591 35.26099 4722 ft 77 kts 44°
2026-04-15 13:31 32.61082 35.26463 4449 ft 86 kts 44°
2026-04-15 13:31 32.61608 35.26874 4109 ft 94 kts 44°
2026-04-15 13:31 32.62210 35.27356 3882 ft 114 kts 50°
2026-04-15 13:31 32.62651 35.28130 3765 ft 115 kts 71°
2026-04-15 13:32 32.62923 35.28991 3870 ft 109 kts 77°
2026-04-15 13:32 32.63217 35.29828 3973 ft 111 kts 78°
2026-04-15 13:32 32.63559 35.30682 3986 ft 116 kts 71°
2026-04-15 13:32 32.63928 35.31480 4261 ft 106 kts 70°
2026-04-15 13:33 32.64326 35.32323 4341 ft 115 kts 71°
2026-04-15 13:33 32.64723 35.33170 4457 ft 120 kts 70°
2026-04-15 13:33 32.65131 35.34058 4494 ft 128 kts 71°
2026-04-15 13:33 32.65558 35.35017 4474 ft 135 kts 71°
2026-04-15 13:34 32.65971 35.35921 4864 ft 111 kts 71°
2026-04-15 13:34 32.66349 35.36665 5297 ft 102 kts 70°
2026-04-15 13:34 32.66747 35.37588 5013 ft 140 kts 72°
2026-04-15 13:34 32.67134 35.38618 5115 ft 132 kts 75°
2026-04-15 13:35 32.67514 35.39630 5119 ft 136 kts 73°
2026-04-15 13:35 32.67904 35.40583 5404 ft 119 kts 69°
2026-04-15 13:35 32.68535 35.41191 5677 ft 130 kts 31°
2026-04-15 13:35 32.69346 35.41548 6007 ft 105 kts 28°
2026-04-15 13:36 32.70010 35.41784 6105 ft 108 kts 28°
2026-04-15 13:36 32.70752 35.42067 6235 ft 113 kts 28°
2026-04-15 13:36 32.71489 35.42329 6383 ft 99 kts 28°
2026-04-15 13:36 32.72106 35.42552 6182 ft 96 kts 30°
2026-04-15 13:37 32.73628 35.43326 2443 ft 147 kts 59°
2026-04-15 13:37 32.73448 35.44031 1973 ft 150 kts 208°
2026-04-15 13:37 32.73582 35.42828 963 ft 152 kts 15°
2026-04-15 13:38 32.73649 35.43541 867 ft 93 kts 136°
2026-04-15 13:38 32.73114 35.44052 991 ft 101 kts 155°
2026-04-15 13:38 32.72654 35.43626 1027 ft 124 kts 299°
2026-04-15 13:38 32.73349 35.42902 749 ft 138 kts 339°
2026-04-15 13:39 32.73935 35.43161 1337 ft 136 kts 107°
2026-04-15 13:39 32.73582 35.44182 1260 ft 129 kts 117°
2026-04-15 13:39 32.72834 35.44408 1153 ft 134 kts 234°
2026-04-15 13:39 32.73159 35.43728 877 ft 122 kts 19°
2026-04-15 13:40 32.74023 35.43952 802 ft 130 kts 18°
2026-04-15 13:40 32.74673 35.44408 1112 ft 110 kts 100°
2026-04-15 13:40 32.74018 35.44921 1007 ft 140 kts 185°
2026-04-15 13:40 32.73068 35.44626 1068 ft 131 kts 213°
2026-04-15 13:41 32.73130 35.43888 841 ft 110 kts
2026-04-15 13:41 32.73889 35.44004 804 ft 112 kts 19°
2026-04-15 13:41 32.74491 35.44382 989 ft 98 kts 90°
2026-04-15 13:41 32.74056 35.44939 1057 ft 114 kts 202°
2026-04-15 13:42 32.73297 35.44709 1088 ft 122 kts 186°
2026-04-15 13:42 32.72905 35.44036 1044 ft 137 kts 334°
2026-04-15 13:42 32.73799 35.44059 817 ft 134 kts 17°
2026-04-15 13:42 32.74608 35.44355 857 ft 114 kts 46°
2026-04-15 13:43 32.74431 35.45073 929 ft 124 kts 176°
2026-04-15 13:43 32.73589 35.44841 1157 ft 125 kts 204°
2026-04-15 13:43 32.73235 35.44018 1076 ft 141 kts 277°
2026-04-15 13:43 32.73649 35.42829 743 ft 161 kts 308°
2026-04-15 13:44 32.73450 35.41801 976 ft 142 kts 190°
2026-04-15 13:44 32.72854 35.41918 1272 ft 123 kts 164°
2026-04-15 13:44 32.72186 35.42378 1453 ft 114 kts 97°
2026-04-15 13:44 32.72464 35.43336 1424 ft 127 kts 63°
2026-04-15 13:45 32.73173 35.43856 1185 ft 131 kts
2026-04-15 13:45 32.73589 35.43161 907 ft 142 kts 268°
2026-04-15 13:45 32.73556 35.41993 1060 ft 131 kts 274°
2026-04-15 13:47 32.73900 35.43950 1217 ft 109 kts 174°
2026-04-15 13:47 32.73463 35.43336 834 ft 148 kts 288°
2026-04-15 13:47 32.73594 35.42098 705 ft 153 kts 276°
2026-04-15 13:48 32.73640 35.41113 1295 ft 137 kts 282°
2026-04-15 13:48 32.74142 35.40209 1029 ft 143 kts
2026-04-15 13:48 32.74809 35.40757 1270 ft 119 kts 62°
2026-04-15 13:48 32.75236 35.41637 1431 ft 121 kts 68°
2026-04-15 13:49 32.75636 35.42461 1672 ft 112 kts 77°
2026-04-15 13:49 32.75371 35.43174 1896 ft 114 kts 143°
2026-04-15 13:49 32.74522 35.43474 1420 ft 137 kts 178°
2026-04-15 13:49 32.73620 35.43339 991 ft 145 kts 220°
2026-04-15 13:50 32.73538 35.42305 713 ft 137 kts 283°
2026-04-15 13:50 32.73579 35.41128 748 ft 141 kts 277°
2026-04-15 13:50 32.73643 35.40065 1203 ft 117 kts 233°
2026-04-15 13:50 32.73027 35.39661 1191 ft 94 kts 140°
2026-04-15 13:51 32.72551 35.40197 1281 ft 107 kts 126°
2026-04-15 13:51 32.72161 35.40875 1571 ft 99 kts 130°
2026-04-15 13:51 32.71544 35.41431 1528 ft 120 kts 161°
2026-04-15 13:51 32.70697 35.41375 1600 ft 124 kts 189°
2026-04-15 13:52 32.69885 35.41124 1715 ft 123 kts 197°
2026-04-15 13:52 32.69026 35.40972 1837 ft 127 kts 194°
2026-04-15 13:52 32.68185 35.40795 1893 ft 127 kts 199°
2026-04-15 13:52 32.67491 35.40258 2068 ft 120 kts 239°
2026-04-15 13:53 32.67053 35.39404 2241 ft 122 kts 247°
2026-04-15 13:53 32.66643 35.38534 2378 ft 121 kts 240°
2026-04-15 13:53 32.66204 35.37658 2402 ft 127 kts 235°
2026-04-15 13:53 32.65748 35.36747 2488 ft 131 kts 234°
2026-04-15 13:54 32.65319 35.35773 2561 ft 133 kts 237°
2026-04-15 13:54 32.64914 35.34818 2625 ft 129 kts 237°
2026-04-15 13:54 32.64502 35.33838 2541 ft 135 kts 237°
2026-04-15 13:54 32.64047 35.32900 2510 ft 132 kts 240°
2026-04-15 13:55 32.63543 35.32001 2525 ft 130 kts 239°
2026-04-15 13:55 32.62978 35.31143 2521 ft 132 kts 238°
2026-04-15 13:55 32.62424 35.30276 2493 ft 133 kts 239°
2026-04-15 13:55 32.61839 35.29420 2459 ft 134 kts 230°
2026-04-15 13:56 32.61092 35.28735 2401 ft 127 kts 220°
2026-04-15 13:56 32.60451 35.28102 2133 ft 117 kts 233°
2026-04-15 13:56 32.59990 35.27433 2034 ft 84 kts 249°
2026-04-15 13:56 32.59854 35.26767 1665 ft 85 kts 257°
2026-04-15 13:57 32.59715 35.26055 1220 ft 90 kts 264°
2026-04-15 13:57 32.59645 35.25332 826 ft 88 kts 272°
2026-04-15 13:57 32.59654 35.24601 426 ft 89 kts 276°
2026-04-15 13:57 32.59694 35.23905 171 ft 74 kts 274°
2026-04-15 13:58 32.59708 35.23629 171 ft 0 kts 279°